createdAt,value
2018-07-06T00:01:12.385Z,29.87
2018-07-06T00:03:52.188Z,16.27
2018-07-06T00:06:32.213Z,19.03
2018-07-06T00:09:12.081Z,26.57
2018-07-06T00:11:52.735Z,20.13
2018-07-06T00:14:32.719Z,27.73
2018-07-06T00:17:13.257Z,34.87
2018-07-06T00:19:53.377Z,24.37
2018-07-06T00:22:33.454Z,32.73
2018-07-06T00:25:13.281Z,30.23
2018-07-06T00:27:53.212Z,24.57
2018-07-06T00:30:32.937Z,17.53
2018-07-06T00:33:13.258Z,21.60
2018-07-06T00:35:53.128Z,17.20
2018-07-06T00:38:33.160Z,30.43
2018-07-06T00:41:13.345Z,16.40
2018-07-06T00:43:53.901Z,14.23
2018-07-06T00:46:33.748Z,16.00
2018-07-06T00:49:13.775Z,20.60
2018-07-06T00:51:53.520Z,18.77
2018-07-06T00:54:33.414Z,14.17
2018-07-06T00:57:13.092Z,15.40
2018-07-06T00:59:53.267Z,11.90
2018-07-06T01:02:33.154Z,13.03
2018-07-06T01:05:13.164Z,14.07
2018-07-06T01:07:53.034Z,14.90
2018-07-06T01:10:32.776Z,20.87
2018-07-06T01:13:12.479Z,15.20
2018-07-06T01:15:52.399Z,27.03
2018-07-06T01:18:32.092Z,17.53
2018-07-06T01:21:12.099Z,18.97
2018-07-06T01:23:51.910Z,21.70
2018-07-06T01:26:31.462Z,16.47
2018-07-06T01:29:11.195Z,21.20
2018-07-06T01:31:51.089Z,18.37
2018-07-06T01:34:31.012Z,17.07
2018-07-06T01:37:11.019Z,15.83
2018-07-06T01:39:50.759Z,16.30
2018-07-06T01:42:30.684Z,19.53
2018-07-06T01:45:10.691Z,20.17
2018-07-06T01:47:50.725Z,15.53
2018-07-06T01:50:30.604Z,9.97
2018-07-06T01:53:10.518Z,12.40
2018-07-06T01:55:50.428Z,14.20
2018-07-06T01:58:30.249Z,15.73
2018-07-06T02:01:10.069Z,21.07
2018-07-06T02:03:49.812Z,23.77
2018-07-06T02:06:29.595Z,16.07
2018-07-06T02:09:09.229Z,17.03
2018-07-06T02:11:49.064Z,16.73
2018-07-06T02:14:28.700Z,17.93
2018-07-06T02:17:08.331Z,21.93
2018-07-06T02:19:48.485Z,19.53
2018-07-06T02:22:28.453Z,15.70
2018-07-06T02:25:08.208Z,12.70
2018-07-06T02:27:47.997Z,32.03
2018-07-06T02:30:28.499Z,18.93
2018-07-06T02:33:08.374Z,17.53
2018-07-06T02:35:48.492Z,15.90
2018-07-06T02:38:28.191Z,24.70
2018-07-06T02:41:08.183Z,14.40
2018-07-06T02:43:48.036Z,28.70
2018-07-06T02:46:28.074Z,18.00
2018-07-06T02:49:07.850Z,23.83
2018-07-06T02:51:47.740Z,17.50
2018-07-06T02:54:27.485Z,18.83
2018-07-06T02:57:07.185Z,16.20
2018-07-06T02:59:46.848Z,11.17
2018-07-06T03:02:26.716Z,11.70
2018-07-06T03:05:06.407Z,10.10
2018-07-06T03:07:46.288Z,13.50
2018-07-06T03:10:26.012Z,16.63
2018-07-06T03:13:05.889Z,14.80
2018-07-06T03:15:45.919Z,16.20
2018-07-06T03:18:25.861Z,14.13
2018-07-06T03:21:05.608Z,14.43
2018-07-06T03:23:45.255Z,12.47
2018-07-06T03:26:25.083Z,17.33
2018-07-06T03:29:04.836Z,8.33
2018-07-06T03:31:44.588Z,27.87
2018-07-06T03:34:24.725Z,15.23
2018-07-06T03:37:04.488Z,14.40
2018-07-06T03:39:44.428Z,15.23
2018-07-06T03:42:24.368Z,15.53
2018-07-06T03:45:04.030Z,17.93
2018-07-06T03:47:43.887Z,20.93
2018-07-06T03:50:23.707Z,21.60
2018-07-06T03:53:03.594Z,17.47
2018-07-06T03:55:43.754Z,13.73
2018-07-06T03:58:23.432Z,35.83
2018-07-06T04:01:03.374Z,17.13
2018-07-06T04:03:43.124Z,20.73
2018-07-06T04:06:22.996Z,13.13
2018-07-06T04:09:02.769Z,14.33
2018-07-06T04:11:42.528Z,14.53
2018-07-06T04:14:22.380Z,21.10
2018-07-06T04:17:02.162Z,13.03
2018-07-06T04:19:41.877Z,14.60
2018-07-06T04:22:21.671Z,17.03
2018-07-06T04:25:01.564Z,17.80
2018-07-06T04:27:41.500Z,21.30
2018-07-06T04:30:22.355Z,14.37
2018-07-06T04:33:02.069Z,12.57
2018-07-06T04:35:41.873Z,13.80
2018-07-06T04:38:21.839Z,20.60
2018-07-06T04:41:01.664Z,18.53
2018-07-06T04:43:41.577Z,15.30
2018-07-06T04:46:21.445Z,10.33
2018-07-06T04:49:01.184Z,11.17
2018-07-06T04:51:41.110Z,12.37
2018-07-06T04:54:21.147Z,12.83
2018-07-06T04:57:01.057Z,11.00
2018-07-06T04:59:41.286Z,12.97
2018-07-06T05:02:20.900Z,10.83
2018-07-06T05:05:00.619Z,16.13
2018-07-06T05:07:40.237Z,19.73
2018-07-06T05:10:19.963Z,25.90
2018-07-06T05:12:59.807Z,22.87
2018-07-06T05:15:39.446Z,29.07
2018-07-06T05:18:19.717Z,29.90
2018-07-06T05:20:59.668Z,27.80
2018-07-06T05:23:39.621Z,38.33
2018-07-06T05:26:19.768Z,33.60
2018-07-06T05:28:59.888Z,38.80
2018-07-06T05:31:40.363Z,43.10
2018-07-06T05:34:20.251Z,35.57
2018-07-06T05:37:00.260Z,36.50
2018-07-06T05:39:40.055Z,34.13
2018-07-06T05:42:19.911Z,39.63
2018-07-06T05:44:59.682Z,40.03
2018-07-06T05:47:39.871Z,41.13
2018-07-06T05:50:19.607Z,40.03
2018-07-06T05:52:59.300Z,39.43
2018-07-06T05:55:39.012Z,46.03
2018-07-06T05:58:18.839Z,40.80
2018-07-06T06:00:58.544Z,41.47
2018-07-06T06:03:38.396Z,43.40
2018-07-06T06:06:18.141Z,38.70
2018-07-06T06:08:45.468Z,42.60
2018-07-06T06:11:14.203Z,42.40
2018-07-06T06:13:42.975Z,44.40
2018-07-06T06:16:11.799Z,41.93
2018-07-06T06:18:40.795Z,42.13
2018-07-06T06:21:09.430Z,44.43
2018-07-06T06:23:38.270Z,48.90
2018-07-06T06:26:06.988Z,59.67
2018-07-06T06:28:35.588Z,55.47
2018-07-06T06:31:04.731Z,55.93
2018-07-06T06:33:33.453Z,58.83
2018-07-06T06:36:02.060Z,70.33
2018-07-06T06:38:30.941Z,58.03
2018-07-06T06:40:59.597Z,70.17
2018-07-06T06:43:28.284Z,65.43
2018-07-06T06:45:56.935Z,61.17
2018-07-06T06:48:25.496Z,63.37
2018-07-06T06:50:54.183Z,59.43
2018-07-06T06:53:23.127Z,57.17
2018-07-06T06:55:51.768Z,55.80
2018-07-06T06:58:20.647Z,62.70
2018-07-06T07:00:49.326Z,55.20
2018-07-06T07:03:18.072Z,63.40
2018-07-06T07:05:46.760Z,58.70
2018-07-06T07:08:15.638Z,60.13
2018-07-06T07:10:44.392Z,57.63
2018-07-06T07:13:13.188Z,57.47
2018-07-06T07:15:41.987Z,56.30
2018-07-06T07:18:10.644Z,51.03
2018-07-06T07:20:39.332Z,53.27
2018-07-06T07:23:08.270Z,48.60
2018-07-06T07:25:36.930Z,54.17
2018-07-06T07:28:05.886Z,50.60
2018-07-06T07:30:34.524Z,46.50
2018-07-06T07:33:03.184Z,52.33
2018-07-06T07:35:31.874Z,42.40
2018-07-06T07:38:00.998Z,45.27
2018-07-06T07:40:29.637Z,46.17
2018-07-06T07:42:58.849Z,42.13
2018-07-06T07:45:27.988Z,48.20
2018-07-06T07:47:56.932Z,44.43
2018-07-06T07:50:25.596Z,43.83
2018-07-06T07:53:05.549Z,46.70
2018-07-06T07:55:34.151Z,49.40
2018-07-06T07:58:02.832Z,48.80
2018-07-06T08:00:31.595Z,46.17
2018-07-06T08:03:00.208Z,41.27
2018-07-06T08:05:28.918Z,45.43
2018-07-06T08:07:57.648Z,46.40
2018-07-06T08:10:26.456Z,42.63
2018-07-06T08:12:55.055Z,47.33
2018-07-06T08:15:23.972Z,48.60
2018-07-06T08:17:52.626Z,51.87
2018-07-06T08:20:21.195Z,50.07
2018-07-06T08:22:49.864Z,46.20
2018-07-06T08:25:18.591Z,48.20
2018-07-06T08:27:47.314Z,49.90
2018-07-06T08:30:16.216Z,45.50
2018-07-06T08:32:44.748Z,58.63
2018-07-06T08:35:24.836Z,50.30
2018-07-06T08:38:00.344Z,51.70
2018-07-06T08:40:29.670Z,52.00
2018-07-06T08:43:00.307Z,51.17
2018-07-06T08:45:29.615Z,59.00
2018-07-06T08:47:58.281Z,58.70
2018-07-06T08:50:26.967Z,48.90
2018-07-06T08:52:56.811Z,50.37
2018-07-06T08:55:25.879Z,46.27
2018-07-06T08:57:55.669Z,49.20
2018-07-06T09:00:24.367Z,46.47
2018-07-06T09:02:53.056Z,53.70
2018-07-06T09:05:21.712Z,50.23
2018-07-06T09:07:50.435Z,44.80
2018-07-06T09:10:19.099Z,49.83
2018-07-06T09:12:47.771Z,58.10
2018-07-06T09:15:16.491Z,60.83
2018-07-06T09:17:45.148Z,46.83
2018-07-06T09:20:13.907Z,51.53
2018-07-06T09:22:42.539Z,53.03
2018-07-06T09:25:12.177Z,43.17
2018-07-06T09:27:40.803Z,48.17
2018-07-06T09:30:09.939Z,44.60
2018-07-06T09:32:38.610Z,46.93
2018-07-06T09:35:07.171Z,42.63
2018-07-06T09:37:35.854Z,41.93
2018-07-06T09:40:04.576Z,42.53
2018-07-06T09:42:33.490Z,27.37
2018-07-06T09:45:02.376Z,27.07
2018-07-06T09:47:31.039Z,35.43
2018-07-06T09:49:59.644Z,31.30
2018-07-06T09:52:28.230Z,26.27
2018-07-06T09:54:56.876Z,27.70
2018-07-06T09:57:25.470Z,23.17
2018-07-06T09:59:54.286Z,26.73
2018-07-06T10:02:22.932Z,25.30
2018-07-06T10:04:51.669Z,20.73
2018-07-06T10:07:20.533Z,21.30
2018-07-06T10:09:49.232Z,20.77
2018-07-06T10:12:18.015Z,19.63
2018-07-06T10:14:46.760Z,19.90
2018-07-06T10:17:15.503Z,16.63
2018-07-06T10:19:44.092Z,22.93
2018-07-06T10:22:12.791Z,22.10
2018-07-06T10:24:41.530Z,18.13
2018-07-06T10:27:10.194Z,20.30
2018-07-06T10:30:01.127Z,20.80
2018-07-06T10:32:30.420Z,18.57
2018-07-06T10:34:59.812Z,17.30
2018-07-06T10:37:29.060Z,21.23
2018-07-06T10:39:57.684Z,17.93
2018-07-06T10:42:26.367Z,13.97
2018-07-06T10:44:55.152Z,15.17
2018-07-06T10:47:23.847Z,15.77
2018-07-06T10:49:52.565Z,18.00
2018-07-06T10:52:21.459Z,20.10
2018-07-06T10:54:50.273Z,17.07
2018-07-06T10:57:18.895Z,20.33
2018-07-06T10:59:47.920Z,17.00
2018-07-06T11:02:16.619Z,17.70
2018-07-06T11:04:45.263Z,19.43
2018-07-06T11:07:14.261Z,18.57
2018-07-06T11:09:42.799Z,20.33
2018-07-06T11:12:11.480Z,17.83
2018-07-06T11:14:40.450Z,18.43
2018-07-06T11:17:09.083Z,24.47
2018-07-06T11:19:37.664Z,26.67
2018-07-06T11:22:06.507Z,16.43
2018-07-06T11:24:35.191Z,22.23
2018-07-06T11:27:03.905Z,18.80
2018-07-06T11:29:32.724Z,19.50
2018-07-06T11:32:01.455Z,17.47
2018-07-06T11:34:30.112Z,16.93
2018-07-06T11:36:58.746Z,39.33
2018-07-06T11:39:27.363Z,16.67
2018-07-06T11:41:55.979Z,14.50
2018-07-06T11:44:24.759Z,14.87
2018-07-06T11:46:53.321Z,13.40
2018-07-06T11:49:22.068Z,15.20
2018-07-06T11:51:51.145Z,15.77
2018-07-06T11:54:19.791Z,16.10
2018-07-06T11:56:48.482Z,15.63
2018-07-06T11:59:17.299Z,9.07
2018-07-06T12:01:46.069Z,9.43
2018-07-06T12:04:14.667Z,9.30
2018-07-06T12:06:43.355Z,7.67
2018-07-06T12:09:13.220Z,7.30
2018-07-06T12:11:41.812Z,6.80
2018-07-06T12:14:10.668Z,5.90
2018-07-06T12:16:39.351Z,5.97
2018-07-06T12:19:07.983Z,9.80
2018-07-06T12:21:36.817Z,11.03
2018-07-06T12:24:05.722Z,7.77
2018-07-06T12:26:34.522Z,4.93
2018-07-06T12:29:03.542Z,4.43
2018-07-06T12:31:32.196Z,3.00
2018-07-06T12:34:01.087Z,4.73
2018-07-06T12:36:31.027Z,3.37
2018-07-06T12:39:00.034Z,4.77
2018-07-06T12:41:28.654Z,2.53
2018-07-06T12:43:57.523Z,3.17
2018-07-06T12:46:26.449Z,3.07
2018-07-06T12:48:55.023Z,2.67
2018-07-06T12:51:24.044Z,6.10
2018-07-06T12:53:52.923Z,3.93
2018-07-06T12:56:22.071Z,3.00
2018-07-06T12:58:51.145Z,3.20
2018-07-06T13:01:19.660Z,3.67
2018-07-06T13:03:48.403Z,4.03
2018-07-06T13:06:17.297Z,2.53
2018-07-06T13:08:46.007Z,2.73
2018-07-06T13:11:14.571Z,3.63
2018-07-06T13:13:43.452Z,5.03
2018-07-06T13:16:12.034Z,3.50
2018-07-06T13:18:40.830Z,5.17
2018-07-06T13:21:09.452Z,2.97
2018-07-06T13:23:38.666Z,3.70
2018-07-06T13:26:07.197Z,3.40
2018-07-06T13:28:35.792Z,4.53
2018-07-06T13:31:04.375Z,4.13
2018-07-06T13:33:33.224Z,4.13
2018-07-06T13:36:02.362Z,3.10
2018-07-06T13:38:31.164Z,3.50
2018-07-06T13:40:59.909Z,8.20
2018-07-06T13:43:28.771Z,3.53
2018-07-06T13:46:00.388Z,4.30
2018-07-06T13:48:29.541Z,6.10
2018-07-06T13:50:58.092Z,2.30
2018-07-06T13:53:26.727Z,3.50
2018-07-06T13:55:55.620Z,5.00
2018-07-06T13:58:24.272Z,6.07
2018-07-06T14:00:52.888Z,3.10
2018-07-06T14:03:21.507Z,5.70
2018-07-06T14:05:50.208Z,3.53
2018-07-06T14:08:18.868Z,4.20
2018-07-06T14:10:47.577Z,3.53
2018-07-06T14:13:16.176Z,2.50
2018-07-06T14:15:45.711Z,3.03
2018-07-06T14:18:14.379Z,6.27
2018-07-06T14:20:43.308Z,4.70
2018-07-06T14:23:11.935Z,4.27
2018-07-06T14:25:40.591Z,3.10
2018-07-06T14:28:09.275Z,6.33
2018-07-06T14:30:38.120Z,2.93
2018-07-06T14:33:07.240Z,2.93
2018-07-06T14:35:36.135Z,2.70
2018-07-06T14:38:05.194Z,2.47
2018-07-06T14:40:33.983Z,3.83
2018-07-06T14:43:02.709Z,2.73
2018-07-06T14:45:31.343Z,3.07
2018-07-06T14:48:01.471Z,3.37
2018-07-06T14:50:30.087Z,3.60
2018-07-06T14:52:58.791Z,2.77
2018-07-06T14:55:28.365Z,2.77
2018-07-06T14:57:57.647Z,5.50
2018-07-06T15:00:26.242Z,6.63
2018-07-06T15:02:54.926Z,3.63
2018-07-06T15:05:23.531Z,4.63
2018-07-06T15:07:52.175Z,5.60
2018-07-06T15:10:21.082Z,5.33
2018-07-06T15:12:49.870Z,2.83
2018-07-06T15:15:18.599Z,3.30
2018-07-06T15:17:47.697Z,4.50
2018-07-06T15:20:16.217Z,5.77
2018-07-06T15:22:44.844Z,4.77
2018-07-06T15:25:13.608Z,7.90
2018-07-06T15:27:42.223Z,3.77
2018-07-06T15:30:10.916Z,5.07
2018-07-06T15:32:39.955Z,2.90
2018-07-06T15:35:08.659Z,3.33
2018-07-06T15:37:37.308Z,15.83
2018-07-06T15:40:06.211Z,6.73
2018-07-06T15:42:35.517Z,2.63
2018-07-06T15:45:05.703Z,5.20
2018-07-06T15:47:34.296Z,3.50
2018-07-06T15:50:04.063Z,5.60
2018-07-06T15:52:32.896Z,3.80
2018-07-06T15:55:01.456Z,4.03
2018-07-06T15:57:30.058Z,5.17
2018-07-06T15:59:58.910Z,5.80
2018-07-06T16:02:27.513Z,5.27
2018-07-06T16:04:56.269Z,12.17
2018-07-06T16:07:27.920Z,9.70
2018-07-06T16:09:56.667Z,14.00
2018-07-06T16:12:25.388Z,7.80
2018-07-06T16:14:54.130Z,7.97
2018-07-06T16:17:22.975Z,14.60
2018-07-06T16:19:51.592Z,15.27
2018-07-06T16:22:20.456Z,23.33
2018-07-06T16:24:50.096Z,8.90
2018-07-06T16:27:23.448Z,7.10
2018-07-06T16:29:55.294Z,6.20
2018-07-06T16:32:34.023Z,12.57
2018-07-06T16:35:05.171Z,5.17
2018-07-06T16:37:36.468Z,4.00
2018-07-06T16:40:06.946Z,4.47
2018-07-06T16:42:36.047Z,6.30
2018-07-06T16:45:04.759Z,6.47
2018-07-06T16:47:33.414Z,7.23
2018-07-06T16:50:02.122Z,4.87
2018-07-06T16:52:31.683Z,4.97
2018-07-06T16:55:01.202Z,4.43
2018-07-06T16:57:30.973Z,12.03
2018-07-06T17:00:02.371Z,5.93
2018-07-06T17:02:31.180Z,4.03
2018-07-06T17:04:59.767Z,3.40
2018-07-06T17:07:28.588Z,6.10
2018-07-06T17:09:57.220Z,3.90
2018-07-06T17:12:25.938Z,3.40
2018-07-06T17:14:57.736Z,5.63
2018-07-06T17:17:29.171Z,4.93
2018-07-06T17:19:58.132Z,5.43
2018-07-06T17:22:26.796Z,7.70
2018-07-06T17:24:55.407Z,6.70
2018-07-06T17:27:24.162Z,4.50
2018-07-06T17:29:53.256Z,7.77
2018-07-06T17:32:22.461Z,7.70
2018-07-06T17:34:51.447Z,6.07
2018-07-06T17:37:20.193Z,6.70
2018-07-06T17:39:48.857Z,4.17
2018-07-06T17:42:18.573Z,6.30
2018-07-06T17:44:47.168Z,6.20
2018-07-06T17:47:15.900Z,3.97
2018-07-06T17:49:44.490Z,5.20
2018-07-06T17:52:13.195Z,4.30
2018-07-06T17:54:41.812Z,4.07
2018-07-06T17:57:10.623Z,9.03
2018-07-06T17:59:39.665Z,5.67
2018-07-06T18:02:08.487Z,3.43
2018-07-06T18:04:37.181Z,7.90
2018-07-06T18:07:05.840Z,5.40
2018-07-06T18:09:34.660Z,3.93
2018-07-06T18:12:03.459Z,5.97
2018-07-06T18:14:32.083Z,10.00
2018-07-06T18:17:00.677Z,4.33
2018-07-06T18:19:29.675Z,6.73
2018-07-06T18:21:58.918Z,3.60
2018-07-06T18:24:27.583Z,6.33
2018-07-06T18:26:56.295Z,7.13
2018-07-06T18:29:24.934Z,7.53
2018-07-06T18:31:53.740Z,5.37
2018-07-06T18:34:22.571Z,10.90
2018-07-06T18:36:51.361Z,12.07
2018-07-06T18:39:20.118Z,18.37
2018-07-06T18:41:49.771Z,25.83
2018-07-06T18:44:18.464Z,17.40
2018-07-06T18:46:47.366Z,14.93
2018-07-06T18:49:17.370Z,16.07
2018-07-06T18:51:46.013Z,10.70
2018-07-06T18:54:14.904Z,10.00
2018-07-06T18:56:43.592Z,9.53
2018-07-06T18:59:12.268Z,12.67
2018-07-06T19:01:41.268Z,12.83
2018-07-06T19:04:09.967Z,11.87
2018-07-06T19:06:38.607Z,16.33
2018-07-06T19:09:07.645Z,14.40
2018-07-06T19:11:36.755Z,17.73
2018-07-06T19:14:05.603Z,17.03
2018-07-06T19:16:34.552Z,17.27
2018-07-06T19:19:03.706Z,16.13
2018-07-06T19:21:32.398Z,26.90
2018-07-06T19:24:00.999Z,21.17
2018-07-06T19:26:29.652Z,18.30
2018-07-06T19:28:57.381Z,21.13
2018-07-06T19:31:26.062Z,20.63
2018-07-06T19:33:55.505Z,19.30
2018-07-06T19:36:24.108Z,25.13
2018-07-06T19:38:52.804Z,22.33
2018-07-06T19:41:21.443Z,26.37
2018-07-06T19:43:50.421Z,24.43
2018-07-06T19:46:19.183Z,18.03
2018-07-06T19:48:48.036Z,28.17
2018-07-06T19:51:17.934Z,28.17
2018-07-06T19:53:46.493Z,25.30
2018-07-06T19:56:15.250Z,21.27
2018-07-06T19:58:43.984Z,25.40
2018-07-06T20:01:12.856Z,21.53
2018-07-06T20:03:41.576Z,22.37
2018-07-06T20:06:10.347Z,22.67
2018-07-06T20:08:39.249Z,25.20
2018-07-06T20:11:08.153Z,25.20
2018-07-06T20:13:37.233Z,23.00
2018-07-06T20:16:05.891Z,25.73
2018-07-06T20:18:34.748Z,20.30
2018-07-06T20:21:03.719Z,20.73
2018-07-06T20:23:33.127Z,26.27
2018-07-06T20:26:01.703Z,19.30
2018-07-06T20:28:30.480Z,23.90
2018-07-06T20:30:59.909Z,25.83
2018-07-06T20:33:28.711Z,22.63
2018-07-06T20:35:57.336Z,21.10
2018-07-06T20:38:26.123Z,18.23
2018-07-06T20:40:54.887Z,19.47
2018-07-06T20:43:23.633Z,25.40
2018-07-06T20:45:52.351Z,22.77
2018-07-06T20:48:21.203Z,17.60
2018-07-06T20:50:49.971Z,23.17
2018-07-06T20:53:19.308Z,22.10
2018-07-06T20:55:48.699Z,23.93
2018-07-06T20:58:17.361Z,24.60
2018-07-06T21:00:46.033Z,20.87
2018-07-06T21:03:14.659Z,23.50
2018-07-06T21:05:43.542Z,25.93
2018-07-06T21:08:12.850Z,23.47
2018-07-06T21:10:42.834Z,21.90
2018-07-06T21:13:11.426Z,25.30
2018-07-06T21:15:39.984Z,25.87
2018-07-06T21:18:08.615Z,26.37
2018-07-06T21:20:37.288Z,29.90
2018-07-06T21:23:06.012Z,26.00
2018-07-06T21:25:34.667Z,26.33
2018-07-06T21:28:03.299Z,23.40
2018-07-06T21:30:33.228Z,23.77
2018-07-06T21:33:01.896Z,21.83
2018-07-06T21:35:30.500Z,26.47
2018-07-06T21:37:59.178Z,25.60
2018-07-06T21:40:27.819Z,27.43
2018-07-06T21:42:56.372Z,29.77
2018-07-06T21:45:24.987Z,25.37
2018-07-06T21:47:53.865Z,29.50
2018-07-06T21:50:22.516Z,30.83
2018-07-06T21:52:51.357Z,27.77
2018-07-06T21:55:19.986Z,23.57
2018-07-06T21:57:48.677Z,29.37
2018-07-06T22:00:18.057Z,27.70
2018-07-06T22:02:47.016Z,31.47
2018-07-06T22:05:15.576Z,33.67
2018-07-06T22:07:47.156Z,27.23
2018-07-06T22:10:15.924Z,24.50
2018-07-06T22:12:44.579Z,28.40
2018-07-06T22:15:13.467Z,25.20
2018-07-06T22:17:48.726Z,32.87
2018-07-06T23:11:50.520Z,29.03
2018-07-06T23:14:19.207Z,32.20
2018-07-06T23:16:47.992Z,29.80
2018-07-06T23:19:17.008Z,30.83
2018-07-06T23:21:45.805Z,31.47
2018-07-06T23:24:14.439Z,25.30
2018-07-06T23:26:43.219Z,32.30
2018-07-06T23:29:12.010Z,28.07
2018-07-06T23:31:40.737Z,32.37
2018-07-06T23:34:09.532Z,36.93
2018-07-06T23:36:38.343Z,32.30
